• Join FlightAware (Why Join?)
  • Login
  • US Flag 
09:27PM EDT


 

Airport Tracker/Info


-or-


 

Live Flight TrackerFlight Track Log ✈ THY2462 ✈ 31-Jul-2013 ✈ LTBA / IST - LTAF / ADA

Flight Track Log - Related Links

Times and Time Zones

All times are in EDT time to prevent confusion due to time zone crossing. See the THY2462 flight status page for this flight to view local times or setup timezone preferences in your user account.

Time Position Orientation Groundspeed Altitude Reporting Facility
EDT Latitude Longitude Course Direction KTS MPH feet Rate Location/Type
07:38AM 40.7130 29.2910 126° Southeast  Level Estimated
07:39AM 40.6467 29.4079 127° Southeast  Level Estimated
07:40AM 40.5803 29.5245 127° Southeast  Level Estimated
07:41AM 40.5139 29.6410 127° Southeast  Level Estimated
07:42AM 40.4472 29.7572 127° Southeast  Level Estimated
07:43AM 40.3805 29.8731 127° Southeast  Level Estimated
07:44AM 40.3136 29.9889 127° Southeast  Level Estimated
07:45AM 40.2467 30.1044 127° Southeast  Level Estimated
07:46AM 40.1796 30.2197 127° Southeast  Level Estimated
07:47AM 40.1124 30.3347 127° Southeast  Level Estimated
07:48AM 40.0451 30.4495 127° Southeast  Level Estimated
07:49AM 39.9777 30.5641 127° Southeast  Level Estimated
07:50AM 39.9101 30.6785 128° Southeast  Level Estimated
07:51AM 39.8425 30.7926 128° Southeast  Level Estimated
07:52AM 39.7747 30.9065 128° Southeast  Level Estimated
07:53AM 39.7069 31.0202 128° Southeast  Level Estimated
07:54AM 39.6389 31.1337 128° Southeast  Level Estimated
07:55AM 39.5708 31.2470 128° Southeast  Level Estimated
07:56AM 39.5026 31.3600 128° Southeast  Level Estimated
07:57AM 39.4343 31.4728 128° Southeast  Level Estimated
07:58AM 39.3659 31.5854 128° Southeast  Level Estimated
07:59AM 39.2973 31.6977 128° Southeast  Level Estimated
08:00AM 39.2287 31.8099 128° Southeast  Level Estimated
08:01AM 39.1600 31.9218 128° Southeast  Level Estimated
08:02AM 39.0911 32.0335 128° Southeast  Level Estimated
08:03AM 39.0222 32.1450 129° Southeast  Level Estimated
08:04AM 38.9531 32.2562 129° Southeast  Level Estimated
08:05AM 38.8839 32.3673 129° Southeast  Level Estimated
08:06AM 38.8147 32.4781 129° Southeast  Level Estimated
08:07AM 38.7453 32.5887 129° Southeast  Level Estimated
08:08AM 38.6758 32.6992 129° Southeast  Level Estimated
08:09AM 38.6063 32.8093 129° Southeast  Level Estimated
08:10AM 38.5366 32.9193 129° Southeast  Level Estimated
08:11AM 38.4668 33.0291 129° Southeast  Level Estimated
08:12AM 38.3969 33.1386 129° Southeast  Level Estimated
08:13AM 38.3269 33.2480 129° Southeast  Level Estimated
08:14AM 38.2568 33.3571 129° Southeast  Level Estimated
08:15AM 38.1866 33.4660 129° Southeast  Level Estimated
08:16AM 38.1163 33.5747 129° Southeast  Level Estimated
08:17AM 38.0459 33.6832 129° Southeast  Level Estimated
08:18AM 37.9754 33.7915 130° Southeast  Level Estimated
08:19AM 37.9049 33.8996 130° Southeast  Level Estimated
08:20AM 37.8342 34.0075 130° Southeast  Level Estimated
08:21AM 37.7634 34.1151 130° Southeast  Level Estimated
08:22AM 37.6925 34.2226 130° Southeast  Level Estimated
08:23AM 37.6215 34.3299 130° Southeast  Level Estimated
08:24AM 37.5504 34.4369 130° Southeast  Level Estimated
08:25AM 37.4792 34.5438 130° Southeast  Level Estimated
08:26AM 37.4080 34.6504 130° Southeast  Level Estimated
08:27AM 37.3366 34.7568 130° Southeast  Level Estimated
08:28AM 37.2651 34.8631 130° Southeast  Level Estimated
08:29AM 37.1936 34.9691 130° Southeast  Level Estimated
08:30AM 37.1219 35.0750 130° Southeast  Level Estimated
08:31AM 37.0502 35.1806 130° Southeast  Level Estimated
08:32AM 36.9822 35.2804 130° Southeast  Level Estimated
08:33AM 36.9822 35.2804 202° Southwest  Level Estimated
08:34AM 36.9822 35.2804 202° Southwest  Level Estimated
08:35AM 36.9822 35.2804 202° Southwest  Level Estimated
08:36AM 36.9822 35.2804 202° Southwest  Level Estimated
08:37AM 36.9822 35.2804 202° Southwest  Level Estimated
08:38AM 36.9822 35.2804 202° Southwest  Level Estimated
08:39AM 36.9822 35.2804 202° Southwest  Level Estimated
08:40AM 36.9822 35.2804 202° Southwest  Level Estimated
08:41AM 36.9822 35.2804 202° Southwest  Level Estimated
08:42AM 36.9822 35.2804 202° Southwest  Level Estimated
08:43AM 36.9822 35.2804 202° Southwest  Level Estimated
08:44AM 36.9822 35.2804 202° Southwest  Level Estimated
08:45AM 36.9822 35.2804 202° Southwest  Level Estimated
08:46AM 36.9822 35.2804 202° Southwest  Level Estimated
08:47AM 36.9822 35.2804 202° Southwest  Level Estimated
08:48AM 36.9822 35.2804 202° Southwest  Level Estimated